DWI1501 SKBO-MDPC
Flight info
| Callsign | DWI1501 |
|---|---|
| Flight time | 2h 13m |
| Altitude | 36000 |
| Route | DANSA4R GIKPU UQ120 YACAR/N0462F380 UQ120 DIBAM/N0464F370 DCT UGOSA DCT AMBAS DCT VESKA VESKA1W |
| Aircraft | B38M/M-SDE1FGHILORVWXY/HB1 |
Departure
| Time | 2026-05-05 21:22 |
|---|---|
| Airport | El Dorado International Airport (SKBO) |
Arrival
| Time | 2026-05-05 23:35 |
|---|---|
| Airport | Punta Cana International Airport (MDPC) |
| Time | Latitude | Longitude | Altitude | Speed | Heading |
|---|---|---|---|---|---|
| 2026-05-05 21:02 | 4.70122 | -74.14316 | 8372 ft | 0 kts | 216° |
| 2026-05-05 21:11 | 4.70130 | -74.14310 | 8373 ft | 3 kts | 216° |
| 2026-05-05 21:12 | 4.70144 | -74.14300 | 8373 ft | 3 kts | 216° |
| 2026-05-05 21:12 | 4.70157 | -74.14288 | 8372 ft | 3 kts | 240° |
| 2026-05-05 21:12 | 4.70163 | -74.14271 | 8372 ft | 3 kts | 270° |
| 2026-05-05 21:12 | 4.70159 | -74.14253 | 8372 ft | 3 kts | 300° |
| 2026-05-05 21:13 | 4.70156 | -74.14247 | 8373 ft | 0 kts | 306° |
| 2026-05-05 21:16 | 4.70155 | -74.14249 | 8373 ft | 0 kts | 282° |
| 2026-05-05 21:16 | 4.70158 | -74.14276 | 8372 ft | 8 kts | 285° |
| 2026-05-05 21:16 | 4.70193 | -74.14338 | 8372 ft | 8 kts | 308° |
| 2026-05-05 21:16 | 4.70214 | -74.14365 | 8373 ft | 5 kts | 308° |
| 2026-05-05 21:17 | 4.70237 | -74.14395 | 8372 ft | 5 kts | 304° |
| 2026-05-05 21:17 | 4.70290 | -74.14410 | 8373 ft | 12 kts | 14° |
| 2026-05-05 21:17 | 4.70378 | -74.14351 | 8373 ft | 18 kts | 37° |
| 2026-05-05 21:17 | 4.70459 | -74.14374 | 8373 ft | 14 kts | 307° |
| 2026-05-05 21:18 | 4.70532 | -74.14470 | 8372 ft | 20 kts | 308° |
| 2026-05-05 21:18 | 4.70628 | -74.14595 | 8373 ft | 25 kts | 307° |
| 2026-05-05 21:18 | 4.70734 | -74.14736 | 8373 ft | 28 kts | 307° |
| 2026-05-05 21:18 | 4.70838 | -74.14873 | 8373 ft | 22 kts | 307° |
| 2026-05-05 21:19 | 4.70939 | -74.15007 | 8372 ft | 27 kts | 307° |
| 2026-05-05 21:19 | 4.71034 | -74.15132 | 8373 ft | 14 kts | 307° |
| 2026-05-05 21:19 | 4.71103 | -74.15223 | 8373 ft | 10 kts | 315° |
| 2026-05-05 21:19 | 4.71174 | -74.15243 | 8373 ft | 13 kts | 353° |
| 2026-05-05 21:20 | 4.71263 | -74.15250 | 8373 ft | 6 kts | 14° |
| 2026-05-05 21:20 | 4.71308 | -74.15222 | 8372 ft | 11 kts | 34° |
| 2026-05-05 21:20 | 4.71324 | -74.15207 | 8372 ft | 0 kts | 76° |
| 2026-05-05 21:20 | 4.71323 | -74.15197 | 8372 ft | 2 kts | 99° |
| 2026-05-05 21:21 | 4.71316 | -74.15180 | 8372 ft | 6 kts | 120° |
| 2026-05-05 21:21 | 4.71170 | -74.14984 | 8371 ft | 69 kts | 127° |
| 2026-05-05 21:21 | 4.70759 | -74.14440 | 8373 ft | 128 kts | 126° |
| 2026-05-05 21:21 | 4.70115 | -74.13579 | 8372 ft | 180 kts | 124° |
| 2026-05-05 21:22 | 4.69359 | -74.12436 | 8743 ft | 203 kts | 124° |
| 2026-05-05 21:22 | 4.68466 | -74.11322 | 9721 ft | 202 kts | 126° |
| 2026-05-05 21:22 | 4.67821 | -74.10056 | 10461 ft | 213 kts | 97° |
| 2026-05-05 21:22 | 4.68148 | -74.08587 | 10978 ft | 231 kts | 54° |
| 2026-05-05 21:23 | 4.69501 | -74.07644 | 11610 ft | 246 kts | 15° |
| 2026-05-05 21:23 | 4.71191 | -74.07577 | 12490 ft | 250 kts | 359° |
| 2026-05-05 21:23 | 4.72964 | -74.07477 | 12999 ft | 263 kts | 17° |
| 2026-05-05 21:23 | 4.74783 | -74.06948 | 13458 ft | 281 kts | 18° |
| 2026-05-05 21:24 | 4.76745 | -74.06427 | 13919 ft | 300 kts | 17° |
| 2026-05-05 21:24 | 4.78820 | -74.05898 | 14474 ft | 313 kts | 17° |
| 2026-05-05 21:24 | 4.80926 | -74.05375 | 15185 ft | 316 kts | 16° |
| 2026-05-05 21:24 | 4.83072 | -74.04848 | 15913 ft | 320 kts | 16° |
| 2026-05-05 21:25 | 4.85247 | -74.04267 | 16567 ft | 325 kts | 21° |
| 2026-05-05 21:25 | 4.87395 | -74.03521 | 16715 ft | 325 kts | 21° |
| 2026-05-05 21:25 | 4.89539 | -74.02785 | 16859 ft | 325 kts | 21° |
| 2026-05-05 21:25 | 4.91689 | -74.02056 | 16987 ft | 326 kts | 21° |
| 2026-05-05 21:26 | 4.93816 | -74.01342 | 17130 ft | 327 kts | 21° |
| 2026-05-05 21:26 | 4.96001 | -74.00611 | 17239 ft | 327 kts | 21° |
| 2026-05-05 21:26 | 4.98135 | -73.99897 | 17257 ft | 328 kts | 21° |
| 2026-05-05 21:26 | 5.00304 | -73.99172 | 17233 ft | 327 kts | 21° |
| 2026-05-05 21:27 | 5.02492 | -73.98520 | 17208 ft | 328 kts | 16° |
| 2026-05-05 21:27 | 5.04716 | -73.97984 | 17188 ft | 328 kts | 17° |
| 2026-05-05 21:27 | 5.06939 | -73.97436 | 17164 ft | 328 kts | 17° |
| 2026-05-05 21:27 | 5.09157 | -73.96883 | 17139 ft | 328 kts | 17° |
| 2026-05-05 21:28 | 5.11378 | -73.96326 | 17112 ft | 328 kts | 17° |
| 2026-05-05 21:28 | 5.13594 | -73.95768 | 17075 ft | 329 kts | 17° |
| 2026-05-05 21:28 | 5.15788 | -73.95214 | 17070 ft | 329 kts | 17° |
| 2026-05-05 21:28 | 5.18006 | -73.94655 | 17069 ft | 328 kts | 17° |
| 2026-05-05 21:29 | 5.20218 | -73.94097 | 17070 ft | 328 kts | 17° |
| 2026-05-05 21:29 | 5.22439 | -73.93538 | 17067 ft | 328 kts | 17° |
| 2026-05-05 21:29 | 5.24652 | -73.92978 | 17039 ft | 328 kts | 17° |
| 2026-05-05 21:29 | 5.26904 | -73.92469 | 17299 ft | 333 kts | 15° |
| 2026-05-05 21:30 | 5.29166 | -73.91974 | 18106 ft | 333 kts | 15° |
| 2026-05-05 21:30 | 5.31466 | -73.91467 | 18484 ft | 347 kts | 15° |
| 2026-05-05 21:30 | 5.33887 | -73.90932 | 18690 ft | 363 kts | 15° |
| 2026-05-05 21:30 | 5.35536 | -73.90567 | 18898 ft | 370 kts | 15° |
| 2026-05-05 21:31 | 5.38886 | -73.89825 | 19620 ft | 373 kts | 15° |
| 2026-05-05 21:31 | 5.41426 | -73.89262 | 20118 ft | 376 kts | 14° |
| 2026-05-05 21:31 | 5.43996 | -73.88692 | 20638 ft | 379 kts | 14° |
| 2026-05-05 21:31 | 5.46580 | -73.88119 | 21149 ft | 381 kts | 14° |
| 2026-05-05 21:32 | 5.49180 | -73.87543 | 21662 ft | 384 kts | 14° |
| 2026-05-05 21:32 | 5.50951 | -73.87150 | 21994 ft | 386 kts | 14° |
| 2026-05-05 21:32 | 5.53588 | -73.86565 | 22511 ft | 389 kts | 14° |
| 2026-05-05 21:32 | 5.56211 | -73.85984 | 22983 ft | 392 kts | 14° |
| 2026-05-05 21:33 | 5.58884 | -73.85391 | 23461 ft | 395 kts | 13° |
| 2026-05-05 21:33 | 5.61578 | -73.84793 | 23859 ft | 398 kts | 13° |
| 2026-05-05 21:33 | 5.64296 | -73.84190 | 24249 ft | 400 kts | 13° |
| 2026-05-05 21:33 | 5.67024 | -73.83584 | 24654 ft | 403 kts | 13° |
| 2026-05-05 21:34 | 5.69774 | -73.82974 | 25034 ft | 405 kts | 13° |
| 2026-05-05 21:34 | 5.72539 | -73.82360 | 25420 ft | 408 kts | 13° |
| 2026-05-05 21:34 | 5.75314 | -73.81745 | 25795 ft | 410 kts | 13° |
| 2026-05-05 21:34 | 5.78112 | -73.81124 | 26176 ft | 413 kts | 13° |
| 2026-05-05 21:35 | 5.80895 | -73.80506 | 26548 ft | 415 kts | 13° |
| 2026-05-05 21:35 | 5.83734 | -73.79876 | 26921 ft | 418 kts | 13° |
| 2026-05-05 21:35 | 5.86582 | -73.79243 | 27291 ft | 420 kts | 13° |
| 2026-05-05 21:35 | 5.89448 | -73.78607 | 27655 ft | 423 kts | 13° |
| 2026-05-05 21:36 | 5.92325 | -73.77968 | 28029 ft | 425 kts | 13° |
| 2026-05-05 21:36 | 5.95219 | -73.77325 | 28379 ft | 427 kts | 13° |
| 2026-05-05 21:36 | 5.98140 | -73.76677 | 28727 ft | 430 kts | 13° |
| 2026-05-05 21:36 | 6.01067 | -73.76026 | 29087 ft | 432 kts | 13° |
| 2026-05-05 21:37 | 6.03996 | -73.75416 | 29402 ft | 435 kts | 12° |
| 2026-05-05 21:37 | 6.07007 | -73.74800 | 29745 ft | 437 kts | 12° |
| 2026-05-05 21:37 | 6.09957 | -73.74192 | 30066 ft | 439 kts | 12° |
| 2026-05-05 21:37 | 6.12964 | -73.73572 | 30344 ft | 441 kts | 12° |
| 2026-05-05 21:38 | 6.15979 | -73.72949 | 30614 ft | 444 kts | 12° |
| 2026-05-05 21:38 | 6.19016 | -73.72322 | 30883 ft | 446 kts | 12° |
| 2026-05-05 21:38 | 6.22063 | -73.71693 | 31154 ft | 448 kts | 12° |
| 2026-05-05 21:38 | 6.25123 | -73.71061 | 31426 ft | 450 kts | 12° |
| 2026-05-05 21:39 | 6.28199 | -73.70425 | 31705 ft | 452 kts | 12° |
| 2026-05-05 21:39 | 6.31281 | -73.69789 | 31956 ft | 454 kts | 12° |
| 2026-05-05 21:39 | 6.34378 | -73.69149 | 32225 ft | 455 kts | 12° |
| 2026-05-05 21:39 | 6.37492 | -73.68506 | 32486 ft | 457 kts | 12° |
| 2026-05-05 21:40 | 6.40607 | -73.67862 | 32753 ft | 459 kts | 12° |
| 2026-05-05 21:40 | 6.43744 | -73.67213 | 33004 ft | 461 kts | 12° |
| 2026-05-05 21:40 | 6.46853 | -73.66571 | 33258 ft | 462 kts | 12° |
| 2026-05-05 21:40 | 6.50008 | -73.65920 | 33522 ft | 464 kts | 12° |
| 2026-05-05 21:41 | 6.53172 | -73.65268 | 33817 ft | 464 kts | 12° |
| 2026-05-05 21:41 | 6.56339 | -73.64615 | 34101 ft | 464 kts | 12° |
| 2026-05-05 21:41 | 6.59447 | -73.63974 | 34383 ft | 464 kts | 12° |
| 2026-05-05 21:41 | 6.62667 | -73.63309 | 34667 ft | 463 kts | 12° |
| 2026-05-05 21:42 | 6.65827 | -73.62658 | 34935 ft | 464 kts | 12° |
| 2026-05-05 21:42 | 6.68988 | -73.62005 | 35201 ft | 464 kts | 12° |
| 2026-05-05 21:42 | 6.72159 | -73.61351 | 35467 ft | 464 kts | 12° |
| 2026-05-05 21:42 | 6.75320 | -73.60699 | 35730 ft | 464 kts | 12° |
| 2026-05-05 21:43 | 6.78447 | -73.60053 | 35858 ft | 465 kts | 12° |
| 2026-05-05 21:43 | 6.81618 | -73.59399 | 35859 ft | 463 kts | 12° |
| 2026-05-05 21:43 | 6.87924 | -73.58097 | 35843 ft | 462 kts | 12° |
| 2026-05-05 21:44 | 6.94239 | -73.56792 | 35836 ft | 462 kts | 12° |
| 2026-05-05 21:44 | 7.00614 | -73.56253 | 35844 ft | 462 kts | 358° |
| 2026-05-05 21:45 | 7.07048 | -73.56515 | 35825 ft | 463 kts | 358° |
| 2026-05-05 21:45 | 7.13459 | -73.56808 | 35824 ft | 463 kts | 358° |
| 2026-05-05 21:46 | 7.19900 | -73.57112 | 35825 ft | 463 kts | 358° |
| 2026-05-05 21:46 | 7.26335 | -73.57419 | 35826 ft | 462 kts | 358° |
| 2026-05-05 21:47 | 7.32767 | -73.57727 | 35823 ft | 462 kts | 358° |
| 2026-05-05 21:47 | 7.39192 | -73.58034 | 35822 ft | 462 kts | 358° |
| 2026-05-05 21:48 | 7.45575 | -73.58339 | 35821 ft | 462 kts | 358° |
| 2026-05-05 21:48 | 7.52005 | -73.58647 | 35822 ft | 462 kts | 358° |
| 2026-05-05 21:49 | 7.58429 | -73.58955 | 35818 ft | 462 kts | 358° |
| 2026-05-05 21:49 | 7.64852 | -73.59262 | 35821 ft | 462 kts | 358° |
| 2026-05-05 21:50 | 7.71241 | -73.59568 | 35824 ft | 461 kts | 358° |
| 2026-05-05 21:50 | 7.77626 | -73.59874 | 35823 ft | 461 kts | 358° |
| 2026-05-05 21:51 | 7.84042 | -73.60182 | 35825 ft | 461 kts | 358° |
| 2026-05-05 21:51 | 7.90467 | -73.60490 | 35827 ft | 461 kts | 358° |
| 2026-05-05 21:52 | 8.00084 | -73.60951 | 35834 ft | 461 kts | 358° |
| 2026-05-05 21:53 | 8.06451 | -73.61257 | 35835 ft | 461 kts | 358° |
| 2026-05-05 21:53 | 8.12849 | -73.61564 | 35842 ft | 460 kts | 358° |
| 2026-05-05 21:54 | 8.19255 | -73.61846 | 35843 ft | 460 kts | 1° |
| 2026-05-05 21:54 | 8.25659 | -73.61680 | 35848 ft | 460 kts | 1° |
| 2026-05-05 21:55 | 8.32069 | -73.61558 | 35846 ft | 460 kts | 1° |
| 2026-05-05 21:55 | 8.38461 | -73.61446 | 35850 ft | 460 kts | 1° |
| 2026-05-05 21:56 | 8.44839 | -73.61333 | 35851 ft | 460 kts | 1° |
| 2026-05-05 21:56 | 8.51246 | -73.61221 | 35852 ft | 460 kts | 1° |
| 2026-05-05 21:57 | 8.57647 | -73.61108 | 35854 ft | 460 kts | 1° |
| 2026-05-05 21:57 | 8.64048 | -73.60996 | 35855 ft | 460 kts | 1° |
| 2026-05-05 21:58 | 8.70410 | -73.60884 | 35854 ft | 460 kts | 1° |
| 2026-05-05 21:58 | 8.76820 | -73.60771 | 35855 ft | 460 kts | 1° |
| 2026-05-05 21:59 | 8.83222 | -73.60658 | 35851 ft | 460 kts | 1° |
| 2026-05-05 21:59 | 8.89622 | -73.60545 | 35848 ft | 460 kts | 1° |
| 2026-05-05 22:00 | 8.96016 | -73.60432 | 35847 ft | 460 kts | 1° |
| 2026-05-05 22:00 | 9.02414 | -73.60319 | 35850 ft | 460 kts | 1° |
| 2026-05-05 22:01 | 9.08818 | -73.60207 | 35847 ft | 460 kts | 1° |
| 2026-05-05 22:01 | 9.15198 | -73.60094 | 35840 ft | 460 kts | 1° |
| 2026-05-05 22:02 | 9.21176 | -73.59565 | 35828 ft | 458 kts | 15° |
| 2026-05-05 22:02 | 9.24112 | -73.58444 | 35845 ft | 458 kts | 26° |
| 2026-05-05 22:02 | 9.27005 | -73.57070 | 35838 ft | 459 kts | 24° |
| 2026-05-05 22:03 | 9.32853 | -73.54446 | 35835 ft | 460 kts | 24° |
| 2026-05-05 22:03 | 9.38720 | -73.51846 | 35839 ft | 459 kts | 23° |
| 2026-05-05 22:04 | 9.44577 | -73.49252 | 35851 ft | 459 kts | 23° |
| 2026-05-05 22:04 | 9.50406 | -73.46670 | 35844 ft | 459 kts | 23° |
| 2026-05-05 22:05 | 9.56274 | -73.44070 | 35843 ft | 460 kts | 23° |
| 2026-05-05 22:05 | 9.62131 | -73.41474 | 35842 ft | 460 kts | 23° |
| 2026-05-05 22:06 | 9.68040 | -73.38966 | 35849 ft | 460 kts | 21° |
| 2026-05-05 22:06 | 9.73981 | -73.36558 | 35852 ft | 460 kts | 21° |
| 2026-05-05 22:07 | 9.79890 | -73.34149 | 35856 ft | 460 kts | 21° |
| 2026-05-05 22:07 | 9.85831 | -73.31726 | 35862 ft | 460 kts | 21° |
| 2026-05-05 22:08 | 9.91769 | -73.29303 | 35862 ft | 460 kts | 21° |
| 2026-05-05 22:08 | 9.97721 | -73.26874 | 35872 ft | 460 kts | 21° |
| 2026-05-05 22:09 | 10.03671 | -73.24445 | 35879 ft | 460 kts | 21° |
| 2026-05-05 22:09 | 10.09625 | -73.22013 | 35888 ft | 461 kts | 21° |
| 2026-05-05 22:10 | 10.15577 | -73.19580 | 35891 ft | 461 kts | 21° |
| 2026-05-05 22:10 | 10.21491 | -73.17162 | 35885 ft | 461 kts | 21° |
| 2026-05-05 22:11 | 10.27452 | -73.14724 | 35880 ft | 461 kts | 21° |
| 2026-05-05 22:11 | 10.33407 | -73.12288 | 35874 ft | 461 kts | 21° |
| 2026-05-05 22:12 | 10.39339 | -73.09860 | 35873 ft | 462 kts | 21° |
| 2026-05-05 22:12 | 10.45309 | -73.07415 | 35875 ft | 462 kts | 21° |
| 2026-05-05 22:13 | 10.51270 | -73.04973 | 35887 ft | 462 kts | 21° |
| 2026-05-05 22:13 | 10.57236 | -73.02527 | 35899 ft | 462 kts | 21° |
| 2026-05-05 22:14 | 10.63200 | -73.00082 | 35909 ft | 462 kts | 21° |
| 2026-05-05 22:14 | 10.69172 | -72.97633 | 35914 ft | 463 kts | 21° |
| 2026-05-05 22:15 | 10.75140 | -72.95184 | 35913 ft | 463 kts | 21° |
| 2026-05-05 22:15 | 10.81117 | -72.92730 | 35907 ft | 463 kts | 21° |
| 2026-05-05 22:16 | 10.87057 | -72.90290 | 35900 ft | 463 kts | 21° |
| 2026-05-05 22:16 | 10.93041 | -72.87832 | 35898 ft | 463 kts | 21° |
| 2026-05-05 22:17 | 10.99019 | -72.85374 | 35893 ft | 464 kts | 20° |
| 2026-05-05 22:17 | 11.05011 | -72.82910 | 35887 ft | 464 kts | 20° |
| 2026-05-05 22:18 | 11.10995 | -72.80448 | 35886 ft | 464 kts | 20° |
| 2026-05-05 22:18 | 11.16977 | -72.77986 | 35886 ft | 464 kts | 20° |
| 2026-05-05 22:19 | 11.22970 | -72.75518 | 35876 ft | 464 kts | 20° |
| 2026-05-05 22:19 | 11.28966 | -72.73047 | 35867 ft | 465 kts | 20° |
| 2026-05-05 22:20 | 11.34959 | -72.70577 | 35861 ft | 465 kts | 20° |
| 2026-05-05 22:20 | 11.39956 | -72.68517 | 35861 ft | 465 kts | 20° |
| 2026-05-05 22:21 | 11.46943 | -72.65634 | 35858 ft | 466 kts | 20° |
| 2026-05-05 22:21 | 11.51975 | -72.63557 | 35861 ft | 466 kts | 20° |
| 2026-05-05 22:22 | 11.57989 | -72.61074 | 35865 ft | 466 kts | 20° |
| 2026-05-05 22:22 | 11.64001 | -72.58591 | 35869 ft | 466 kts | 20° |
| 2026-05-05 22:23 | 11.69981 | -72.56119 | 35874 ft | 466 kts | 20° |
| 2026-05-05 22:23 | 11.76011 | -72.53627 | 35872 ft | 467 kts | 20° |
| 2026-05-05 22:24 | 11.82036 | -72.51134 | 35872 ft | 467 kts | 20° |
| 2026-05-05 22:24 | 11.88059 | -72.48641 | 35873 ft | 467 kts | 20° |
| 2026-05-05 22:25 | 11.94083 | -72.46147 | 35879 ft | 467 kts | 20° |
| 2026-05-05 22:25 | 12.00084 | -72.43661 | 35880 ft | 467 kts | 20° |
| 2026-05-05 22:26 | 12.06127 | -72.41157 | 35883 ft | 468 kts | 20° |
| 2026-05-05 22:26 | 12.12164 | -72.38653 | 35883 ft | 468 kts | 20° |
| 2026-05-05 22:27 | 12.18166 | -72.36163 | 35887 ft | 468 kts | 20° |
| 2026-05-05 22:27 | 12.24203 | -72.33658 | 35891 ft | 468 kts | 20° |
| 2026-05-05 22:28 | 12.30252 | -72.31145 | 35892 ft | 468 kts | 20° |
| 2026-05-05 22:28 | 12.36303 | -72.28631 | 35900 ft | 468 kts | 20° |
| 2026-05-05 22:29 | 12.42310 | -72.26135 | 35901 ft | 469 kts | 20° |
| 2026-05-05 22:29 | 12.48363 | -72.23616 | 35903 ft | 469 kts | 20° |
| 2026-05-05 22:30 | 12.54409 | -72.21101 | 35910 ft | 468 kts | 20° |
| 2026-05-05 22:30 | 12.60448 | -72.18587 | 35909 ft | 468 kts | 20° |
| 2026-05-05 22:31 | 12.66453 | -72.16086 | 35912 ft | 468 kts | 20° |
| 2026-05-05 22:31 | 12.72499 | -72.13566 | 35918 ft | 468 kts | 20° |
| 2026-05-05 22:32 | 12.78542 | -72.11046 | 35918 ft | 468 kts | 20° |
| 2026-05-05 22:32 | 12.84584 | -72.08526 | 35921 ft | 468 kts | 19° |
| 2026-05-05 22:33 | 12.90579 | -72.06024 | 35919 ft | 468 kts | 20° |
| 2026-05-05 22:33 | 12.96616 | -72.03503 | 35924 ft | 468 kts | 19° |
| 2026-05-05 22:34 | 13.02657 | -72.00981 | 35922 ft | 468 kts | 20° |
| 2026-05-05 22:34 | 13.08690 | -71.98460 | 35926 ft | 468 kts | 19° |
| 2026-05-05 22:35 | 13.14704 | -71.95945 | 35927 ft | 468 kts | 20° |
| 2026-05-05 22:35 | 13.20744 | -71.93418 | 35932 ft | 468 kts | 19° |
| 2026-05-05 22:36 | 13.26777 | -71.90893 | 35931 ft | 468 kts | 19° |
| 2026-05-05 22:36 | 13.32808 | -71.88368 | 35934 ft | 468 kts | 19° |
| 2026-05-05 22:37 | 13.38851 | -71.85836 | 35934 ft | 468 kts | 19° |
| 2026-05-05 22:37 | 13.44896 | -71.83302 | 35935 ft | 468 kts | 19° |
| 2026-05-05 22:38 | 13.50883 | -71.80790 | 35939 ft | 468 kts | 19° |
| 2026-05-05 22:38 | 13.56925 | -71.78255 | 35939 ft | 468 kts | 19° |
| 2026-05-05 22:39 | 13.62959 | -71.75720 | 35946 ft | 468 kts | 20° |
| 2026-05-05 22:39 | 13.68994 | -71.73185 | 35944 ft | 468 kts | 20° |
| 2026-05-05 22:40 | 13.74986 | -71.70666 | 35948 ft | 468 kts | 20° |
| 2026-05-05 22:40 | 13.81014 | -71.68131 | 35952 ft | 468 kts | 20° |
| 2026-05-05 22:41 | 13.87053 | -71.65589 | 35951 ft | 468 kts | 20° |
| 2026-05-05 22:41 | 13.93086 | -71.63049 | 35950 ft | 468 kts | 20° |
| 2026-05-05 22:42 | 13.99121 | -71.60506 | 35952 ft | 468 kts | 20° |
| 2026-05-05 22:42 | 14.05141 | -71.57969 | 35956 ft | 468 kts | 20° |
| 2026-05-05 22:43 | 14.11167 | -71.55427 | 35956 ft | 468 kts | 20° |
| 2026-05-05 22:43 | 14.17198 | -71.52881 | 35960 ft | 468 kts | 20° |
| 2026-05-05 22:44 | 14.23187 | -71.50353 | 35962 ft | 468 kts | 20° |
| 2026-05-05 22:44 | 14.29225 | -71.47801 | 35963 ft | 468 kts | 20° |
| 2026-05-05 22:45 | 14.35250 | -71.45254 | 35961 ft | 468 kts | 20° |
| 2026-05-05 22:45 | 14.41276 | -71.42705 | 35967 ft | 468 kts | 20° |
| 2026-05-05 22:46 | 14.47309 | -71.40151 | 35967 ft | 468 kts | 20° |
| 2026-05-05 22:46 | 14.53335 | -71.37599 | 35966 ft | 468 kts | 20° |
| 2026-05-05 22:47 | 14.59325 | -71.35060 | 35969 ft | 468 kts | 20° |
| 2026-05-05 22:47 | 14.65355 | -71.32504 | 35973 ft | 468 kts | 20° |
| 2026-05-05 22:48 | 14.71392 | -71.29942 | 35974 ft | 468 kts | 20° |
| 2026-05-05 22:48 | 14.77425 | -71.27381 | 35975 ft | 468 kts | 20° |
| 2026-05-05 22:49 | 14.83448 | -71.24823 | 35978 ft | 468 kts | 20° |
| 2026-05-05 22:49 | 14.89479 | -71.22259 | 35980 ft | 468 kts | 20° |
| 2026-05-05 22:50 | 14.95475 | -71.19709 | 35980 ft | 468 kts | 20° |
| 2026-05-05 22:50 | 15.01515 | -71.17139 | 35980 ft | 468 kts | 20° |
| 2026-05-05 22:51 | 15.07441 | -71.14616 | 35984 ft | 468 kts | 20° |
| 2026-05-05 22:51 | 15.13474 | -71.12045 | 35989 ft | 469 kts | 20° |
| 2026-05-05 22:52 | 15.19477 | -71.09486 | 35986 ft | 469 kts | 20° |
| 2026-05-05 22:52 | 15.25487 | -71.06922 | 35989 ft | 469 kts | 20° |
| 2026-05-05 22:53 | 15.31519 | -71.04347 | 35990 ft | 469 kts | 20° |
| 2026-05-05 22:53 | 15.37557 | -71.01768 | 35994 ft | 469 kts | 20° |
| 2026-05-05 22:54 | 15.43599 | -70.99186 | 35994 ft | 469 kts | 20° |
| 2026-05-05 22:54 | 15.49193 | -70.95738 | 36002 ft | 473 kts | 39° |
| 2026-05-05 22:55 | 15.54314 | -70.91445 | 36002 ft | 474 kts | 36° |
| 2026-05-05 22:55 | 15.59487 | -70.87260 | 35996 ft | 473 kts | 36° |
| 2026-05-05 22:56 | 15.64696 | -70.83053 | 35996 ft | 474 kts | 36° |
| 2026-05-05 22:56 | 15.69900 | -70.78848 | 35998 ft | 474 kts | 36° |
| 2026-05-05 22:57 | 15.75100 | -70.74643 | 36002 ft | 474 kts | 36° |
| 2026-05-05 22:57 | 15.80264 | -70.70465 | 36005 ft | 474 kts | 36° |
| 2026-05-05 22:58 | 15.85466 | -70.66253 | 36006 ft | 473 kts | 36° |
| 2026-05-05 22:58 | 15.90666 | -70.62039 | 36007 ft | 473 kts | 36° |
| 2026-05-05 22:59 | 15.95860 | -70.57828 | 36006 ft | 473 kts | 36° |
| 2026-05-05 22:59 | 16.01055 | -70.53613 | 36006 ft | 473 kts | 36° |
| 2026-05-05 23:00 | 16.08840 | -70.47292 | 36005 ft | 473 kts | 36° |
| 2026-05-05 23:00 | 16.13991 | -70.43106 | 36010 ft | 473 kts | 36° |
| 2026-05-05 23:01 | 16.19183 | -70.38883 | 36013 ft | 473 kts | 36° |
| 2026-05-05 23:01 | 16.24375 | -70.34658 | 36013 ft | 473 kts | 36° |
| 2026-05-05 23:02 | 16.29560 | -70.30436 | 36013 ft | 473 kts | 36° |
| 2026-05-05 23:02 | 16.34721 | -70.26229 | 36016 ft | 473 kts | 36° |
| 2026-05-05 23:03 | 16.39912 | -70.21996 | 36017 ft | 474 kts | 36° |
| 2026-05-05 23:03 | 16.45047 | -70.17806 | 36017 ft | 473 kts | 36° |
| 2026-05-05 23:04 | 16.50239 | -70.13566 | 36020 ft | 473 kts | 36° |
| 2026-05-05 23:04 | 16.55401 | -70.09347 | 36023 ft | 473 kts | 36° |
| 2026-05-05 23:05 | 16.60592 | -70.05102 | 36021 ft | 474 kts | 36° |
| 2026-05-05 23:05 | 16.65756 | -70.00876 | 36024 ft | 474 kts | 36° |
| 2026-05-05 23:06 | 16.70936 | -69.96634 | 36027 ft | 474 kts | 36° |
| 2026-05-05 23:06 | 16.76115 | -69.92389 | 35995 ft | 469 kts | 36° |
| 2026-05-05 23:07 | 16.78657 | -69.90304 | 35640 ft | 461 kts | 36° |
| 2026-05-05 23:07 | 16.81183 | -69.88231 | 35026 ft | 461 kts | 36° |
| 2026-05-05 23:07 | 16.83707 | -69.86161 | 34441 ft | 461 kts | 36° |
| 2026-05-05 23:07 | 16.86214 | -69.84103 | 33910 ft | 459 kts | 36° |
| 2026-05-05 23:08 | 16.88723 | -69.82044 | 33312 ft | 456 kts | 36° |
| 2026-05-05 23:08 | 16.90374 | -69.80688 | 32952 ft | 454 kts | 36° |
| 2026-05-05 23:08 | 16.93659 | -69.77988 | 32269 ft | 450 kts | 37° |
| 2026-05-05 23:08 | 16.96109 | -69.75975 | 31754 ft | 447 kts | 37° |
| 2026-05-05 23:09 | 16.98552 | -69.73967 | 31237 ft | 445 kts | 37° |
| 2026-05-05 23:09 | 17.00194 | -69.72616 | 30896 ft | 443 kts | 37° |
| 2026-05-05 23:09 | 17.02614 | -69.70625 | 30385 ft | 441 kts | 37° |
| 2026-05-05 23:09 | 17.04989 | -69.68670 | 29854 ft | 439 kts | 37° |
| 2026-05-05 23:10 | 17.07386 | -69.66698 | 29290 ft | 437 kts | 37° |
| 2026-05-05 23:10 | 17.09767 | -69.64736 | 28798 ft | 433 kts | 37° |
| 2026-05-05 23:10 | 17.12123 | -69.62796 | 28331 ft | 429 kts | 37° |
| 2026-05-05 23:10 | 17.14456 | -69.60874 | 27866 ft | 425 kts | 37° |
| 2026-05-05 23:11 | 17.16773 | -69.58963 | 27408 ft | 422 kts | 37° |
| 2026-05-05 23:11 | 17.19070 | -69.57069 | 26953 ft | 419 kts | 37° |
| 2026-05-05 23:11 | 17.21352 | -69.55186 | 26504 ft | 416 kts | 37° |
| 2026-05-05 23:11 | 17.23612 | -69.53322 | 26071 ft | 413 kts | 37° |
| 2026-05-05 23:12 | 17.25860 | -69.51466 | 25631 ft | 410 kts | 37° |
| 2026-05-05 23:12 | 17.28092 | -69.49623 | 25202 ft | 408 kts | 37° |
| 2026-05-05 23:12 | 17.30313 | -69.47788 | 24784 ft | 405 kts | 37° |
| 2026-05-05 23:12 | 17.32525 | -69.45962 | 24361 ft | 403 kts | 37° |
| 2026-05-05 23:13 | 17.34722 | -69.44146 | 23952 ft | 401 kts | 37° |
| 2026-05-05 23:13 | 17.35462 | -69.43534 | 23810 ft | 401 kts | 37° |
| 2026-05-05 23:14 | 17.37201 | -69.42098 | 23460 ft | 399 kts | 36° |
| 2026-05-05 23:14 | 17.39371 | -69.40302 | 23043 ft | 395 kts | 37° |
| 2026-05-05 23:14 | 17.41525 | -69.38519 | 22583 ft | 393 kts | 37° |
| 2026-05-05 23:14 | 17.43664 | -69.36749 | 22181 ft | 389 kts | 37° |
| 2026-05-05 23:15 | 17.45782 | -69.34996 | 21792 ft | 386 kts | 37° |
| 2026-05-05 23:15 | 17.47881 | -69.33258 | 21400 ft | 383 kts | 37° |
| 2026-05-05 23:15 | 17.49962 | -69.31534 | 21014 ft | 380 kts | 37° |
| 2026-05-05 23:15 | 17.52028 | -69.29823 | 20632 ft | 377 kts | 37° |
| 2026-05-05 23:16 | 17.54078 | -69.28124 | 20251 ft | 375 kts | 37° |
| 2026-05-05 23:16 | 17.56093 | -69.26453 | 19873 ft | 372 kts | 37° |
| 2026-05-05 23:16 | 17.58146 | -69.24751 | 19497 ft | 370 kts | 37° |
| 2026-05-05 23:16 | 17.60129 | -69.23105 | 19132 ft | 368 kts | 37° |
| 2026-05-05 23:17 | 17.62130 | -69.21445 | 18750 ft | 366 kts | 37° |
| 2026-05-05 23:17 | 17.64125 | -69.19790 | 18383 ft | 364 kts | 37° |
| 2026-05-05 23:17 | 17.66109 | -69.18143 | 17963 ft | 363 kts | 37° |
| 2026-05-05 23:17 | 17.68088 | -69.16499 | 17568 ft | 360 kts | 37° |
| 2026-05-05 23:18 | 17.70047 | -69.14872 | 17184 ft | 357 kts | 37° |
| 2026-05-05 23:18 | 17.71989 | -69.13258 | 16820 ft | 354 kts | 37° |
| 2026-05-05 23:18 | 17.73923 | -69.11654 | 16422 ft | 353 kts | 37° |
| 2026-05-05 23:18 | 17.75818 | -69.10076 | 16046 ft | 351 kts | 37° |
| 2026-05-05 23:19 | 17.77721 | -69.08492 | 15681 ft | 348 kts | 37° |
| 2026-05-05 23:19 | 17.79615 | -69.06916 | 15324 ft | 346 kts | 37° |
| 2026-05-05 23:19 | 17.81496 | -69.05351 | 14964 ft | 343 kts | 38° |
| 2026-05-05 23:19 | 17.83361 | -69.03799 | 14618 ft | 341 kts | 38° |
| 2026-05-05 23:20 | 17.85216 | -69.02254 | 14272 ft | 339 kts | 38° |
| 2026-05-05 23:20 | 17.87063 | -69.00716 | 13920 ft | 337 kts | 38° |
| 2026-05-05 23:20 | 17.88898 | -68.99188 | 13540 ft | 335 kts | 38° |
| 2026-05-05 23:20 | 17.90722 | -68.97668 | 13171 ft | 333 kts | 39° |
| 2026-05-05 23:21 | 17.92529 | -68.96162 | 12820 ft | 330 kts | 39° |
| 2026-05-05 23:21 | 17.94320 | -68.94669 | 12487 ft | 327 kts | 39° |
| 2026-05-05 23:21 | 17.96096 | -68.93187 | 12154 ft | 324 kts | 39° |
| 2026-05-05 23:21 | 17.97858 | -68.91718 | 11825 ft | 322 kts | 39° |
| 2026-05-05 23:22 | 17.99581 | -68.90280 | 11495 ft | 320 kts | 39° |
| 2026-05-05 23:22 | 18.01318 | -68.88831 | 11166 ft | 318 kts | 39° |
| 2026-05-05 23:22 | 18.03033 | -68.87400 | 10843 ft | 315 kts | 40° |
| 2026-05-05 23:22 | 18.04748 | -68.85968 | 10519 ft | 314 kts | 40° |
| 2026-05-05 23:23 | 18.06447 | -68.84548 | 10295 ft | 308 kts | 40° |
| 2026-05-05 23:23 | 18.08103 | -68.83166 | 10150 ft | 300 kts | 40° |
| 2026-05-05 23:23 | 18.09714 | -68.81819 | 9963 ft | 293 kts | 40° |
| 2026-05-05 23:23 | 18.11310 | -68.80485 | 9641 ft | 292 kts | 40° |
| 2026-05-05 23:24 | 18.12900 | -68.79156 | 9300 ft | 291 kts | 40° |
| 2026-05-05 23:24 | 18.14459 | -68.77853 | 9022 ft | 289 kts | 40° |
| 2026-05-05 23:24 | 18.16025 | -68.76542 | 8726 ft | 287 kts | 40° |
| 2026-05-05 23:24 | 18.17582 | -68.75240 | 8428 ft | 284 kts | 40° |
| 2026-05-05 23:25 | 18.19125 | -68.73949 | 8138 ft | 283 kts | 40° |
| 2026-05-05 23:25 | 18.20657 | -68.72667 | 7846 ft | 281 kts | 40° |
| 2026-05-05 23:25 | 18.22183 | -68.71389 | 7560 ft | 279 kts | 40° |
| 2026-05-05 23:25 | 18.23702 | -68.70118 | 7267 ft | 278 kts | 40° |
| 2026-05-05 23:26 | 18.25210 | -68.68854 | 6989 ft | 276 kts | 40° |
| 2026-05-05 23:26 | 18.26709 | -68.67598 | 6708 ft | 275 kts | 41° |
| 2026-05-05 23:26 | 18.28204 | -68.66346 | 6415 ft | 274 kts | 41° |
| 2026-05-05 23:26 | 18.29692 | -68.65099 | 6116 ft | 273 kts | 41° |
| 2026-05-05 23:27 | 18.31173 | -68.63857 | 5821 ft | 271 kts | 41° |
| 2026-05-05 23:27 | 18.31976 | -68.63184 | 5668 ft | 270 kts | 41° |
| 2026-05-05 23:27 | 18.33441 | -68.61956 | 5394 ft | 268 kts | 41° |
| 2026-05-05 23:27 | 18.34871 | -68.60755 | 5121 ft | 266 kts | 42° |
| 2026-05-05 23:28 | 18.36312 | -68.59547 | 4853 ft | 264 kts | 42° |
| 2026-05-05 23:28 | 18.37774 | -68.58385 | 4548 ft | 265 kts | 34° |
| 2026-05-05 23:28 | 18.39523 | -68.57724 | 4203 ft | 271 kts | 12° |
| 2026-05-05 23:28 | 18.41361 | -68.57405 | 4048 ft | 264 kts | 13° |
| 2026-05-05 23:29 | 18.43142 | -68.57064 | 3898 ft | 256 kts | 14° |
| 2026-05-05 23:29 | 18.44866 | -68.56721 | 3757 ft | 249 kts | 14° |
| 2026-05-05 23:29 | 18.46541 | -68.56380 | 3633 ft | 242 kts | 14° |
| 2026-05-05 23:29 | 18.48168 | -68.56045 | 3493 ft | 235 kts | 14° |
| 2026-05-05 23:30 | 18.49753 | -68.55713 | 3350 ft | 229 kts | 15° |
| 2026-05-05 23:30 | 18.51243 | -68.55311 | 3249 ft | 213 kts | 28° |
| 2026-05-05 23:30 | 18.52372 | -68.54399 | 3009 ft | 200 kts | 56° |
| 2026-05-05 23:30 | 18.53005 | -68.53146 | 2785 ft | 190 kts | 75° |
| 2026-05-05 23:31 | 18.53372 | -68.51830 | 2568 ft | 185 kts | 79° |
| 2026-05-05 23:31 | 18.53696 | -68.50563 | 2348 ft | 177 kts | 78° |
| 2026-05-05 23:31 | 18.54014 | -68.49383 | 2163 ft | 156 kts | 78° |
| 2026-05-05 23:31 | 18.54303 | -68.48315 | 1968 ft | 150 kts | 78° |
| 2026-05-05 23:32 | 18.54589 | -68.47264 | 1755 ft | 149 kts | 77° |
| 2026-05-05 23:32 | 18.54932 | -68.46190 | 1576 ft | 149 kts | 73° |
| 2026-05-05 23:32 | 18.55224 | -68.45145 | 1406 ft | 149 kts | 79° |
| 2026-05-05 23:32 | 18.55463 | -68.44091 | 1187 ft | 147 kts | 81° |
| 2026-05-05 23:33 | 18.55722 | -68.43034 | 1036 ft | 149 kts | 77° |
| 2026-05-05 23:33 | 18.56028 | -68.41993 | 843 ft | 148 kts | 77° |
| 2026-05-05 23:33 | 18.56313 | -68.40951 | 631 ft | 152 kts | 77° |
| 2026-05-05 23:33 | 18.56586 | -68.39893 | 467 ft | 149 kts | 77° |
| 2026-05-05 23:34 | 18.56880 | -68.38868 | 220 ft | 146 kts | 77° |
| 2026-05-05 23:34 | 18.57156 | -68.37850 | 48 ft | 141 kts | 73° |
| 2026-05-05 23:34 | 18.57369 | -68.37062 | 49 ft | 74 kts | 73° |
| 2026-05-05 23:34 | 18.57483 | -68.36654 | 51 ft | 53 kts | 74° |
| 2026-05-05 23:35 | 18.57584 | -68.36279 | 50 ft | 52 kts | 74° |
| 2026-05-05 23:35 | 18.57595 | -68.36031 | 50 ft | 27 kts | 101° |
| 2026-05-05 23:35 | 18.57543 | -68.35894 | 48 ft | 20 kts | 130° |
| 2026-05-05 23:35 | 18.57407 | -68.35832 | 48 ft | 23 kts | 176° |
| 2026-05-05 23:36 | 18.57235 | -68.35812 | 51 ft | 26 kts | 172° |
| 2026-05-05 23:36 | 18.57047 | -68.35814 | 51 ft | 29 kts | 181° |
| 2026-05-05 23:36 | 18.56965 | -68.35839 | 52 ft | 1 kts | 258° |
| 2026-05-05 23:36 | 18.56964 | -68.35875 | 52 ft | 11 kts | 269° |
| 2026-05-05 23:37 | 18.56956 | -68.36016 | 52 ft | 27 kts | 265° |
| 2026-05-05 23:37 | 18.56935 | -68.36259 | 49 ft | 38 kts | 264° |
| 2026-05-05 23:37 | 18.56874 | -68.36431 | 48 ft | 26 kts | 194° |
| 2026-05-05 23:37 | 18.56688 | -68.36422 | 49 ft | 28 kts | 176° |
| 2026-05-05 23:38 | 18.56555 | -68.36437 | 53 ft | 14 kts | 243° |
| 2026-05-05 23:38 | 18.56541 | -68.36548 | 53 ft | 17 kts | 266° |
| 2026-05-05 23:38 | 18.56530 | -68.36684 | 53 ft | 20 kts | 265° |
| 2026-05-05 23:38 | 18.56516 | -68.36842 | 53 ft | 23 kts | 264° |
| 2026-05-05 23:39 | 18.56498 | -68.37004 | 53 ft | 15 kts | 258° |
| 2026-05-05 23:39 | 18.56466 | -68.37027 | 52 ft | 3 kts | 163° |
| 2026-05-05 23:39 | 18.56455 | -68.37016 | 52 ft | 4 kts | 138° |
| 2026-05-05 23:39 | 18.56430 | -68.36969 | 52 ft | 1 kts | 94° |
| 2026-05-05 23:40 | 18.56429 | -68.36947 | 52 ft | 5 kts | 90° |
| 2026-05-05 23:40 | 18.56431 | -68.36917 | 52 ft | 0 kts | 87° |